Time;durP1;ratioP1;P1;durP2;ratioP2;P2;SDS_P1;SDS_P2;PMS_P1;PMS_P2;Temp;Humidity;BMP_temperature;BMP_pressure;BME280_temperature;BME280_humidity;BME280_pressure;Samples;Min_cycle;Max_cycle;Signal;HPM_P1;HPM_P2
2021/08/30 00:03:31;;;;;;;13.43;12.00;;;;;;;;;;10278779;28;20099;-60
2021/08/30 00:08:30;;;;;;;16.88;12.25;;;;;;;;;;10278533;28;20069;-60
2021/08/30 00:13:30;;;;;;;12.77;11.57;;;;;;;;;;10278489;28;20045;-60
2021/08/30 00:18:28;;;;;;;12.82;11.50;;;;;;;;;;10277977;28;20088;-61
2021/08/30 00:23:26;;;;;;;12.90;10.27;;;;;;;;;;10276804;28;20047;-60
2021/08/30 00:28:24;;;;;;;10.15;9.13;;;;;;;;;;10277549;28;20051;-61
2021/08/30 00:33:24;;;;;;;9.90;8.60;;;;;;;;;;10277270;28;20120;-61
2021/08/30 00:38:22;;;;;;;8.48;7.65;;;;;;;;;;10276714;28;20093;-61
2021/08/30 00:43:21;;;;;;;10.00;8.25;;;;;;;;;;10277401;28;20076;-60
2021/08/30 00:48:19;;;;;;;8.50;7.70;;;;;;;;;;10275447;28;20057;-61
2021/08/30 00:53:19;;;;;;;11.07;10.07;;;;;;;;;;10276953;28;20056;-60
2021/08/30 00:58:17;;;;;;;8.85;8.05;;;;;;;;;;10276713;28;20088;-61
2021/08/30 01:03:16;;;;;;;9.48;7.93;;;;;;;;;;10276507;28;20108;-60
2021/08/30 01:08:18;;;;;;;10.23;9.32;;;;;;;;;;10276770;28;20053;-60
2021/08/30 01:13:22;;;;;;;8.98;8.00;;;;;;;;;;10276610;28;20048;-61
2021/08/30 01:18:20;;;;;;;;;;;;;;;;;;10276524;28;20080;-61
2021/08/30 01:23:19;;;;;;;7.13;6.20;;;;;;;;;;10276137;28;19921;-60
2021/08/30 01:28:21;;;;;;;8.23;7.10;;;;;;;;;;10275951;28;20040;-60
2021/08/30 01:33:22;;;;;;;8.48;7.60;;;;;;;;;;10279214;28;20076;-61
2021/08/30 01:38:20;;;;;;;8.18;7.35;;;;;;;;;;10284740;28;20475;-60
2021/08/30 01:43:19;;;;;;;10.50;8.00;;;;;;;;;;10284582;28;20437;-61
2021/08/30 01:48:18;;;;;;;9.18;7.90;;;;;;;;;;10283061;28;20087;-60
2021/08/30 01:53:18;;;;;;;9.05;8.15;;;;;;;;;;10282063;28;20053;-61
2021/08/30 02:03:32;;;;;;;9.27;8.38;;;;;;;;;;10282649;28;20045;-60
2021/08/30 02:08:33;;;;;;;8.90;8.10;;;;;;;;;;10283415;28;20136;-59
2021/08/30 02:13:32;;;;;;;8.80;7.95;;;;;;;;;;10283337;28;20049;-60
2021/08/30 02:18:34;;;;;;;9.80;8.80;;;;;;;;;;10282610;28;20080;-59
2021/08/30 02:23:37;;;;;;;9.88;8.85;;;;;;;;;;10282588;28;20053;-60
2021/08/30 02:28:36;;;;;;;9.07;8.18;;;;;;;;;;10282800;28;20087;-59
2021/08/30 02:33:34;;;;;;;8.48;7.57;;;;;;;;;;10282320;28;20047;-58
2021/08/30 02:38:35;;;;;;;8.80;8.00;;;;;;;;;;10281689;28;20076;-59
2021/08/30 02:43:34;;;;;;;9.50;8.00;;;;;;;;;;10282113;28;20084;-58
2021/08/30 02:48:33;;;;;;;8.77;8.02;;;;;;;;;;10281250;28;20084;-59
2021/08/30 02:53:31;;;;;;;8.35;7.55;;;;;;;;;;10280608;28;20494;-59
2021/08/30 02:58:31;;;;;;;8.90;7.63;;;;;;;;;;10281142;28;20474;-59
2021/08/30 03:03:31;;;;;;;8.73;7.82;;;;;;;;;;10289110;28;20513;-58
2021/08/30 03:08:30;;;;;;;8.55;7.75;;;;;;;;;;10304434;28;20067;-59
2021/08/30 03:13:28;;;;;;;8.02;7.32;;;;;;;;;;10296143;28;20490;-59
2021/08/30 03:18:28;;;;;;;8.50;7.70;;;;;;;;;;10295670;28;20492;-60
2021/08/30 03:23:27;;;;;;;8.70;7.90;;;;;;;;;;10310829;28;20099;-59
2021/08/30 03:28:26;;;;;;;8.25;7.47;;;;;;;;;;10303285;28;20072;-60
2021/08/30 03:33:24;;;;;;;8.48;7.68;;;;;;;;;;10289231;28;20095;-59
2021/08/30 03:38:24;;;;;;;8.95;8.18;;;;;;;;;;10294586;28;20073;-59
2021/08/30 03:43:23;;;;;;;10.32;7.93;;;;;;;;;;10282941;28;20482;-57
2021/08/30 03:48:23;;;;;;;8.80;7.57;;;;;;;;;;10305031;28;20083;-59
2021/08/30 03:53:23;;;;;;;8.07;7.38;;;;;;;;;;10319569;28;20080;-58
2021/08/30 03:58:23;;;;;;;8.05;6.97;;;;;;;;;;10318868;28;20481;-58
2021/08/30 04:03:22;;;;;;;8.82;7.93;;;;;;;;;;10319178;28;20041;-58
2021/08/30 04:08:21;;;;;;;8.50;7.70;;;;;;;;;;10319233;28;20048;-59
2021/08/30 04:13:19;;;;;;;8.25;7.55;;;;;;;;;;10318064;28;20036;-59
2021/08/30 04:18:19;;;;;;;8.55;7.85;;;;;;;;;;10318742;28;20072;-59
2021/08/30 04:23:17;;;;;;;7.78;7.07;;;;;;;;;;10318565;28;20043;-59
2021/08/30 04:28:15;;;;;;;8.10;7.35;;;;;;;;;;10318354;28;20489;-59
2021/08/30 04:33:14;;;;;;;8.45;7.65;;;;;;;;;;10318116;28;20441;-59
2021/08/30 04:38:14;;;;;;;10.13;9.25;;;;;;;;;;10318246;28;20044;-59
2021/08/30 04:43:13;;;;;;;15.57;14.02;;;;;;;;;;10317169;28;20068;-59
2021/08/30 04:48:11;;;;;;;9.20;8.40;;;;;;;;;;10313366;28;20079;-59
2021/08/30 04:53:09;;;;;;;8.60;7.80;;;;;;;;;;10313869;28;20082;-59
2021/08/30 04:58:11;;;;;;;20.27;16.83;;;;;;;;;;10313433;28;20071;-59
2021/08/30 05:03:09;;;;;;;9.25;8.35;;;;;;;;;;10316555;28;20473;-59
2021/08/30 05:08:08;;;;;;;13.02;11.73;;;;;;;;;;10315516;28;20044;-59
2021/08/30 05:13:06;;;;;;;10.13;9.23;;;;;;;;;;10316856;28;20049;-60
2021/08/30 05:18:06;;;;;;;8.95;8.23;;;;;;;;;;10317255;28;20075;-60
2021/08/30 05:23:04;;;;;;;10.57;9.68;;;;;;;;;;10316236;28;20040;-60
2021/08/30 05:28:03;;;;;;;10.60;9.60;;;;;;;;;;10316675;28;20076;-60
2021/08/30 05:33:01;;;;;;;9.75;8.93;;;;;;;;;;10317151;28;20072;-60
2021/08/30 05:38:01;;;;;;;13.70;12.30;;;;;;;;;;10316580;28;20045;-59
2021/08/30 05:43:00;;;;;;;11.23;8.50;;;;;;;;;;10315955;28;20052;-60
2021/08/30 05:47:58;;;;;;;12.88;8.75;;;;;;;;;;10315872;28;20099;-59
2021/08/30 05:52:56;;;;;;;9.77;8.60;;;;;;;;;;10316071;28;20509;-60
2021/08/30 05:57:56;;;;;;;10.10;9.23;;;;;;;;;;10316204;28;20071;-59
2021/08/30 06:02:54;;;;;;;10.25;9.20;;;;;;;;;;10316235;28;20045;-60
2021/08/30 06:07:54;;;;;;;9.85;8.70;;;;;;;;;;10316213;28;20497;-60
2021/08/30 06:12:52;;;;;;;14.65;9.93;;;;;;;;;;10316083;28;20101;-59
2021/08/30 06:17:52;;;;;;;11.65;10.52;;;;;;;;;;10316499;28;20041;-60
2021/08/30 06:22:50;;;;;;;12.20;11.10;;;;;;;;;;10323185;28;20040;-60
2021/08/30 06:27:49;;;;;;;12.23;11.05;;;;;;;;;;10322876;28;20064;-59
2021/08/30 06:32:47;;;;;;;12.25;10.98;;;;;;;;;;10322619;28;20076;-59
2021/08/30 06:37:47;;;;;;;11.65;10.57;;;;;;;;;;10321535;28;20075;-59
2021/08/30 06:42:45;;;;;;;11.88;10.88;;;;;;;;;;10322678;28;20052;-59
2021/08/30 06:47:44;;;;;;;11.45;10.23;;;;;;;;;;10321821;28;20052;-59
2021/08/30 06:52:42;;;;;;;11.95;10.95;;;;;;;;;;10322228;28;20083;-59
2021/08/30 06:57:42;;;;;;;11.68;10.63;;;;;;;;;;10320551;28;20544;-59
2021/08/30 07:02:43;;;;;;;11.52;10.50;;;;;;;;;;10321744;28;20041;-60
2021/08/30 07:07:41;;;;;;;10.73;9.82;;;;;;;;;;10321803;28;20048;-59
2021/08/30 07:12:40;;;;;;;10.57;9.63;;;;;;;;;;10321185;28;20102;-60
2021/08/30 07:17:39;;;;;;;9.48;8.68;;;;;;;;;;10321269;28;20041;-59
2021/08/30 07:22:38;;;;;;;10.60;9.65;;;;;;;;;;10320431;28;20055;-59
2021/08/30 07:27:36;;;;;;;10.70;9.70;;;;;;;;;;10320651;28;20080;-59
2021/08/30 07:32:34;;;;;;;110.32;98.25;;;;;;;;;;10319565;28;20466;-60
2021/08/30 07:37:34;;;;;;;11.07;10.02;;;;;;;;;;10320141;28;20541;-59
2021/08/30 07:42:33;;;;;;;10.35;9.35;;;;;;;;;;10319651;28;20049;-60
2021/08/30 07:47:31;;;;;;;11.30;10.13;;;;;;;;;;10320290;28;20053;-59
2021/08/30 07:52:30;;;;;;;10.98;9.95;;;;;;;;;;10319610;28;20079;-60
2021/08/30 07:57:29;;;;;;;11.00;9.85;;;;;;;;;;10319970;28;20060;-60
2021/08/30 08:02:28;;;;;;;11.43;10.27;;;;;;;;;;10319242;28;20056;-60
2021/08/30 08:07:26;;;;;;;10.77;9.55;;;;;;;;;;10319358;28;20049;-60
2021/08/30 08:12:24;;;;;;;10.20;9.23;;;;;;;;;;10318377;28;20076;-59
2021/08/30 08:17:24;;;;;;;10.38;9.38;;;;;;;;;;10318693;28;20053;-59
2021/08/30 08:22:22;;;;;;;10.40;9.40;;;;;;;;;;10318345;28;20041;-61
2021/08/30 08:27:21;;;;;;;10.63;9.57;;;;;;;;;;10318050;28;20441;-59
2021/08/30 08:32:19;;;;;;;10.10;8.45;;;;;;;;;;10317827;28;20474;-59
2021/08/30 08:37:19;;;;;;;10.35;8.93;;;;;;;;;;10317965;28;20041;-60
2021/08/30 08:42:17;;;;;;;9.68;8.68;;;;;;;;;;10317646;28;20083;-59
2021/08/30 08:47:16;;;;;;;58.97;52.67;;;;;;;;;;10316995;28;20067;-59
2021/08/30 08:52:14;;;;;;;9.35;8.48;;;;;;;;;;10317654;28;20087;-59
2021/08/30 08:57:25;;;;;;;10.05;9.15;;;;;;;;;;10317594;28;20052;-59
2021/08/30 09:02:28;;;;;;;15.35;13.88;;;;;;;;;;10317233;28;20509;-60
2021/08/30 09:07:31;;;;;;;9.00;8.10;;;;;;;;;;10317397;28;20048;-59
2021/08/30 09:12:31;;;;;;;9.60;8.70;;;;;;;;;;10317260;28;20409;-58
2021/08/30 09:17:31;;;;;;;18.38;16.60;;;;;;;;;;10316923;28;20063;-60
2021/08/30 09:22:31;;;;;;;8.95;8.05;;;;;;;;;;10316805;28;20040;-62
2021/08/30 09:27:34;;;;;;;10.18;9.27;;;;;;;;;;10316550;28;20087;-61
2021/08/30 09:32:34;;;;;;;8.93;8.13;;;;;;;;;;10316606;28;20328;-61
2021/08/30 09:37:36;;;;;;;8.35;7.55;;;;;;;;;;10316545;28;20418;-60
2021/08/30 09:42:36;;;;;;;7.68;6.97;;;;;;;;;;10316292;28;20049;-60
2021/08/30 09:47:34;;;;;;;9.45;8.55;;;;;;;;;;10315961;28;20524;-61
2021/08/30 09:52:32;;;;;;;15.05;13.55;;;;;;;;;;10316053;28;20080;-61
2021/08/30 09:57:31;;;;;;;8.32;7.53;;;;;;;;;;10323909;28;20044;-61
2021/08/30 10:02:31;;;;;;;7.82;6.55;;;;;;;;;;10324306;28;20084;-62
2021/08/30 10:07:31;;;;;;;8.20;7.40;;;;;;;;;;10324293;28;20051;-62
2021/08/30 10:12:30;;;;;;;7.45;6.72;;;;;;;;;;10323417;28;20099;-62
2021/08/30 10:17:28;;;;;;;10.27;9.38;;;;;;;;;;10323268;28;20049;-62
2021/08/30 10:22:28;;;;;;;9.40;7.43;;;;;;;;;;10323104;28;20079;-62
2021/08/30 10:27:33;;;;;;;8.57;6.93;;;;;;;;;;10322947;28;20064;-60
2021/08/30 10:32:37;;;;;;;16.88;15.25;;;;;;;;;;10322760;28;20136;-62
2021/08/30 10:37:46;;;;;;;8.95;6.97;;;;;;;;;;10323151;28;20075;-60
2021/08/30 10:42:45;;;;;;;6.32;5.60;;;;;;;;;;10322657;28;20053;-61
2021/08/30 10:47:43;;;;;;;6.10;5.50;;;;;;;;;;10321745;28;20064;-61
2021/08/30 10:52:43;;;;;;;13.07;10.82;;;;;;;;;;10322167;28;20229;-61
2021/08/30 10:57:42;;;;;;;7.03;6.38;;;;;;;;;;10322275;28;20500;-61
2021/08/30 11:02:41;;;;;;;11.95;7.57;;;;;;;;;;10321774;28;20068;-60
2021/08/30 11:07:40;;;;;;;5.82;5.32;;;;;;;;;;10320297;28;20048;-61
2021/08/30 11:12:43;;;;;;;5.18;4.68;;;;;;;;;;10321151;28;20494;-61
2021/08/30 11:17:41;;;;;;;5.38;4.97;;;;;;;;;;10321564;28;20044;-62
2021/08/30 11:22:39;;;;;;;7.40;6.00;;;;;;;;;;10321184;28;20053;-62
2021/08/30 11:27:43;;;;;;;6.57;5.15;;;;;;;;;;10320841;28;20045;-62
2021/08/30 11:32:42;;;;;;;6.15;5.03;;;;;;;;;;10319925;28;20091;-60
2021/08/30 11:37:40;;;;;;;5.70;4.90;;;;;;;;;;10320362;28;20053;-61
2021/08/30 11:42:39;;;;;;;9.25;3.97;;;;;;;;;;10320156;28;20048;-61
2021/08/30 11:47:39;;;;;;;4.93;4.43;;;;;;;;;;10319533;28;20525;-61
2021/08/30 11:52:39;;;;;;;9.43;6.30;;;;;;;;;;10319665;28;20079;-61
2021/08/30 11:57:42;;;;;;;5.03;4.55;;;;;;;;;;10319441;28;20055;-63
2021/08/30 12:02:42;;;;;;;4.70;3.70;;;;;;;;;;10319582;28;20048;-61
2021/08/30 12:07:40;;;;;;;6.15;3.72;;;;;;;;;;10319503;28;20490;-61
2021/08/30 12:12:52;;;;;;;4.43;4.00;;;;;;;;;;10318918;28;20080;-61
2021/08/30 12:17:55;;;;;;;4.18;3.78;;;;;;;;;;10318262;28;20040;-62
2021/08/30 12:22:54;;;;;;;4.93;3.40;;;;;;;;;;10318818;28;20383;-61
2021/08/30 12:27:53;;;;;;;4.82;3.60;;;;;;;;;;10318440;28;20040;-61
2021/08/30 12:33:05;;;;;;;3.58;3.17;;;;;;;;;;10318196;28;20083;-62
2021/08/30 12:38:04;;;;;;;4.68;3.35;;;;;;;;;;10318073;28;20053;-61
2021/08/30 12:43:03;;;;;;;3.53;3.05;;;;;;;;;;10318063;28;20078;-62
2021/08/30 12:48:02;;;;;;;4.05;3.35;;;;;;;;;;10317766;28;20091;-61
2021/08/30 12:53:01;;;;;;;3.72;3.30;;;;;;;;;;10317642;28;20088;-61
2021/08/30 12:57:59;;;;;;;3.90;3.03;;;;;;;;;;10317693;28;20414;-61
2021/08/30 13:02:58;;;;;;;4.82;3.08;;;;;;;;;;10317544;28;20047;-61
2021/08/30 13:07:57;;;;;;;3.38;3.08;;;;;;;;;;10317454;28;20044;-61
2021/08/30 13:12:56;;;;;;;3.90;3.50;;;;;;;;;;10316207;28;20045;-61
2021/08/30 13:17:55;;;;;;;4.18;3.22;;;;;;;;;;10317043;28;20048;-62
2021/08/30 13:22:53;;;;;;;5.38;2.88;;;;;;;;;;10316959;28;20072;-62
2021/08/30 13:27:55;;;;;;;5.72;2.65;;;;;;;;;;10316097;28;20048;-61
2021/08/30 13:32:53;;;;;;;3.08;2.63;;;;;;;;;;10316849;28;20481;-62
2021/08/30 13:37:55;;;;;;;5.53;3.10;;;;;;;;;;10316688;28;20044;-62
2021/08/30 13:42:55;;;;;;;4.05;2.72;;;;;;;;;;10316631;28;20036;-61
2021/08/30 13:47:56;;;;;;;3.83;2.67;;;;;;;;;;10315886;28;20053;-61
2021/08/30 13:52:55;;;;;;;2.90;2.63;;;;;;;;;;10316352;28;20079;-61
2021/08/30 13:57:54;;;;;;;5.65;3.33;;;;;;;;;;10316109;28;20053;-61
2021/08/30 14:02:53;;;;;;;3.97;3.05;;;;;;;;;;10315587;28;20525;-62
2021/08/30 14:07:52;;;;;;;7.93;2.78;;;;;;;;;;10315844;28;20051;-61
2021/08/30 14:12:50;;;;;;;4.05;2.65;;;;;;;;;;10315658;28;20076;-61
2021/08/30 14:17:50;;;;;;;3.35;2.25;;;;;;;;;;10315990;28;20045;-61
2021/08/30 14:22:48;;;;;;;3.70;3.40;;;;;;;;;;10315619;28;20048;-61
2021/08/30 14:27:48;;;;;;;4.85;4.00;;;;;;;;;;10312156;28;20088;-60
2021/08/30 14:32:46;;;;;;;7.30;6.60;;;;;;;;;;10290384;28;20084;-60
2021/08/30 14:37:46;;;;;;;21.95;15.07;;;;;;;;;;10289854;28;20433;-60
2021/08/30 14:42:44;;;;;;;8.13;5.30;;;;;;;;;;10278604;28;20434;-62
2021/08/30 14:47:43;;;;;;;38.83;22.40;;;;;;;;;;10279778;28;20061;-61
2021/08/30 14:52:42;;;;;;;29.83;20.23;;;;;;;;;;10291229;28;20087;-60
2021/08/30 14:57:41;;;;;;;46.63;28.90;;;;;;;;;;10300291;28;20064;-59
2021/08/30 15:02:40;;;;;;;5.25;4.20;;;;;;;;;;10297512;28;20048;-60
2021/08/30 15:07:38;;;;;;;24.73;12.35;;;;;;;;;;10295648;28;20067;-60
2021/08/30 15:12:40;;;;;;;3.38;3.00;;;;;;;;;;10294840;28;20072;-60
2021/08/30 15:17:39;;;;;;;3.50;3.20;;;;;;;;;;10294848;28;20036;-60
2021/08/30 15:22:38;;;;;;;4.63;3.60;;;;;;;;;;10295860;28;20076;-60
2021/08/30 15:27:38;;;;;;;5.20;3.80;;;;;;;;;;10277168;28;20477;-60
2021/08/30 15:32:36;;;;;;;6.18;3.38;;;;;;;;;;10279898;28;20076;-60
2021/08/30 15:37:36;;;;;;;3.42;2.75;;;;;;;;;;10278580;28;20057;-61
2021/08/30 15:42:35;;;;;;;6.80;3.75;;;;;;;;;;10277810;28;20487;-60
2021/08/30 15:47:34;;;;;;;7.30;4.10;;;;;;;;;;10278462;28;20045;-60
2021/08/30 15:52:32;;;;;;;8.95;2.60;;;;;;;;;;10278696;28;20091;-59
2021/08/30 15:57:32;;;;;;;5.03;3.28;;;;;;;;;;10288619;28;20044;-59
2021/08/30 16:02:30;;;;;;;3.15;2.88;;;;;;;;;;10298132;28;20410;-59
2021/08/30 16:07:28;;;;;;;6.50;3.33;;;;;;;;;;10297367;28;20064;-60
2021/08/30 16:12:27;;;;;;;4.32;3.03;;;;;;;;;;10299399;28;20073;-59
2021/08/30 16:17:26;;;;;;;3.97;3.10;;;;;;;;;;10295960;28;20044;-60
2021/08/30 16:22:25;;;;;;;3.85;3.28;;;;;;;;;;10291391;28;20079;-60
2021/08/30 16:27:23;;;;;;;4.80;3.05;;;;;;;;;;10275216;28;20068;-60
2021/08/30 16:32:21;;;;;;;5.78;4.78;;;;;;;;;;10276835;28;20075;-60
2021/08/30 16:37:21;;;;;;;4.45;3.95;;;;;;;;;;10277903;28;20053;-60
2021/08/30 16:42:20;;;;;;;4.95;3.50;;;;;;;;;;10277112;28;20044;-60
2021/08/30 16:47:18;;;;;;;3.40;3.00;;;;;;;;;;10277062;28;20091;-59
2021/08/30 16:52:17;;;;;;;3.05;2.75;;;;;;;;;;10276724;28;20052;-59
2021/08/30 16:57:18;;;;;;;3.83;3.10;;;;;;;;;;10276574;28;20052;-59
2021/08/30 17:02:16;;;;;;;7.28;3.45;;;;;;;;;;10276758;28;20045;-59
2021/08/30 17:07:15;;;;;;;6.32;3.22;;;;;;;;;;10276503;28;20072;-59
2021/08/30 17:12:14;;;;;;;4.88;3.47;;;;;;;;;;10276000;28;20077;-59
2021/08/30 17:17:14;;;;;;;3.17;2.95;;;;;;;;;;10272282;28;20076;-59
2021/08/30 17:22:12;;;;;;;4.90;3.00;;;;;;;;;;10291939;28;20049;-57
2021/08/30 17:27:11;;;;;;;8.27;2.90;;;;;;;;;;10297120;28;20079;-57
2021/08/30 17:32:09;;;;;;;5.35;2.80;;;;;;;;;;10316869;28;20417;-59
2021/08/30 17:37:09;;;;;;;4.70;2.63;;;;;;;;;;10290640;28;20064;-59
2021/08/30 17:42:07;;;;;;;5.82;3.28;;;;;;;;;;10275512;28;20041;-59
2021/08/30 17:47:05;;;;;;;4.55;4.03;;;;;;;;;;10276192;28;20476;-58
2021/08/30 17:52:05;;;;;;;10.82;3.83;;;;;;;;;;10278918;28;20057;-59
2021/08/30 17:57:05;;;;;;;6.05;3.92;;;;;;;;;;10315925;28;20497;-59
2021/08/30 18:02:04;;;;;;;3.22;2.53;;;;;;;;;;10316311;28;20071;-59
2021/08/30 18:07:03;;;;;;;4.38;3.30;;;;;;;;;;10315867;28;20044;-59
2021/08/30 18:12:01;;;;;;;4.97;2.75;;;;;;;;;;10315680;28;20041;-61
2021/08/30 18:17:01;;;;;;;3.85;2.97;;;;;;;;;;10321564;28;20076;-60
2021/08/30 18:21:59;;;;;;;4.63;2.90;;;;;;;;;;10322933;28;20068;-60
2021/08/30 18:26:57;;;;;;;4.47;3.03;;;;;;;;;;10322930;28;20485;-60
2021/08/30 18:31:56;;;;;;;7.53;2.92;;;;;;;;;;10323104;28;20048;-60
2021/08/30 18:36:55;;;;;;;7.57;3.80;;;;;;;;;;10307510;28;20103;-60
2021/08/30 18:41:54;;;;;;;4.35;2.80;;;;;;;;;;10301746;28;20426;-61
2021/08/30 18:46:52;;;;;;;3.70;2.92;;;;;;;;;;10293660;28;20060;-58
2021/08/30 18:51:50;;;;;;;3.10;2.80;;;;;;;;;;10305099;28;20048;-60
2021/08/30 18:56:50;;;;;;;2.72;2.53;;;;;;;;;;10305835;28;20064;-60
2021/08/30 19:01:48;;;;;;;2.55;2.35;;;;;;;;;;10290248;28;20045;-60
2021/08/30 19:06:48;;;;;;;5.53;2.47;;;;;;;;;;10296564;28;20056;-59
2021/08/30 19:11:47;;;;;;;4.40;2.58;;;;;;;;;;10291549;28;20073;-61
2021/08/30 19:16:47;;;;;;;4.60;2.90;;;;;;;;;;10283468;28;20067;-60
2021/08/30 19:21:45;;;;;;;5.00;3.00;;;;;;;;;;10291709;28;20060;-61
2021/08/30 19:26:44;;;;;;;3.03;2.75;;;;;;;;;;10284211;28;20548;-60
2021/08/30 19:31:42;;;;;;;3.60;3.00;;;;;;;;;;10303169;28;20045;-60
2021/08/30 19:36:42;;;;;;;3.65;2.55;;;;;;;;;;10292409;28;20076;-60
2021/08/30 19:41:40;;;;;;;3.35;2.40;;;;;;;;;;10283152;28;20463;-60
2021/08/30 19:46:38;;;;;;;2.33;2.10;;;;;;;;;;10288269;28;20084;-58
2021/08/30 19:51:37;;;;;;;2.20;2.05;;;;;;;;;;10289472;28;20060;-60
2021/08/30 19:56:36;;;;;;;6.95;2.75;;;;;;;;;;10291533;28;20072;-59
2021/08/30 20:01:35;;;;;;;2.33;2.13;;;;;;;;;;10279464;28;20462;-60
2021/08/30 20:06:33;;;;;;;4.25;2.55;;;;;;;;;;10293849;28;20067;-58
2021/08/30 20:11:32;;;;;;;3.13;2.83;;;;;;;;;;10287579;28;20067;-59
2021/08/30 20:16:33;;;;;;;3.60;2.80;;;;;;;;;;10287043;28;20517;-59
2021/08/30 20:21:32;;;;;;;5.28;2.60;;;;;;;;;;10289142;28;20065;-59
2021/08/30 20:26:30;;;;;;;4.90;3.85;;;;;;;;;;10287767;28;20064;-59
2021/08/30 20:31:28;;;;;;;3.33;3.03;;;;;;;;;;10308296;28;20040;-59
2021/08/30 20:36:28;;;;;;;6.35;3.67;;;;;;;;;;10278759;28;20533;-58
2021/08/30 20:41:27;;;;;;;4.78;3.00;;;;;;;;;;10276970;28;20049;-60
2021/08/30 20:46:25;;;;;;;5.88;2.83;;;;;;;;;;10276656;28;20049;-59
2021/08/30 20:51:23;;;;;;;3.38;2.70;;;;;;;;;;10277404;28;20056;-59
2021/08/30 20:56:24;;;;;;;3.03;2.63;;;;;;;;;;10276782;28;20084;-58
2021/08/30 21:01:23;;;;;;;3.50;3.20;;;;;;;;;;10276278;28;20075;-59
2021/08/30 21:06:24;;;;;;;3.90;3.08;;;;;;;;;;10276511;28;20044;-60
2021/08/30 21:11:24;;;;;;;11.82;4.72;;;;;;;;;;10276408;28;20041;-59
2021/08/30 21:16:22;;;;;;;3.30;2.65;;;;;;;;;;10276178;28;20077;-60
2021/08/30 21:21:21;;;;;;;3.20;2.90;;;;;;;;;;10275600;28;20049;-60
2021/08/30 21:26:19;;;;;;;5.30;4.07;;;;;;;;;;10275696;28;20439;-59
2021/08/30 21:31:19;;;;;;;5.20;3.10;;;;;;;;;;10276006;28;20041;-60
2021/08/30 21:36:17;;;;;;;2.92;2.70;;;;;;;;;;10275243;28;20081;-59
2021/08/30 21:41:16;;;;;;;3.90;3.60;;;;;;;;;;10275579;28;20037;-59
2021/08/30 21:46:14;;;;;;;3.28;2.95;;;;;;;;;;10275363;28;20079;-59
2021/08/30 21:51:14;;;;;;;3.63;3.33;;;;;;;;;;10280635;28;20072;-60
2021/08/30 21:56:12;;;;;;;5.30;3.20;;;;;;;;;;10283769;28;20106;-59
2021/08/30 22:01:10;;;;;;;3.53;3.13;;;;;;;;;;10283142;28;20068;-60
2021/08/30 22:06:09;;;;;;;3.85;3.30;;;;;;;;;;10283112;28;20609;-60
2021/08/30 22:11:09;;;;;;;4.32;3.42;;;;;;;;;;10282761;28;20469;-60
2021/08/30 22:16:07;;;;;;;3.78;3.40;;;;;;;;;;10282653;28;20080;-60
2021/08/30 22:21:05;;;;;;;3.83;3.45;;;;;;;;;;10282797;28;20045;-60
2021/08/30 22:26:04;;;;;;;5.82;3.80;;;;;;;;;;10282718;28;20540;-59
2021/08/30 22:31:03;;;;;;;3.67;3.38;;;;;;;;;;10282144;28;20112;-60
2021/08/30 22:36:02;;;;;;;4.00;3.60;;;;;;;;;;10281827;28;20072;-60
2021/08/30 22:41:00;;;;;;;3.70;3.13;;;;;;;;;;10281608;28;20073;-60
2021/08/30 22:45:58;;;;;;;4.47;3.78;;;;;;;;;;10281464;28;20413;-60
2021/08/30 22:50:58;;;;;;;3.83;3.53;;;;;;;;;;10281530;28;20037;-60
2021/08/30 22:55:56;;;;;;;5.30;4.00;;;;;;;;;;10281538;28;20520;-60
2021/08/30 23:00:55;;;;;;;5.13;4.00;;;;;;;;;;10280821;28;20060;-60
2021/08/30 23:05:53;;;;;;;4.95;3.83;;;;;;;;;;10280950;28;20048;-60
2021/08/30 23:10:53;;;;;;;5.35;3.70;;;;;;;;;;10281015;28;20049;-60
2021/08/30 23:15:51;;;;;;;6.05;4.15;;;;;;;;;;10280568;28;20486;-60
2021/08/30 23:20:50;;;;;;;4.30;3.90;;;;;;;;;;10280655;28;20049;-60
2021/08/30 23:25:48;;;;;;;3.88;3.58;;;;;;;;;;10279991;28;20076;-59
2021/08/30 23:30:48;;;;;;;3.90;3.60;;;;;;;;;;10280476;28;20045;-60
2021/08/30 23:35:46;;;;;;;4.88;3.30;;;;;;;;;;10279597;28;20080;-60
2021/08/30 23:40:44;;;;;;;3.78;3.47;;;;;;;;;;10279552;28;20045;-60
2021/08/30 23:45:44;;;;;;;4.00;3.58;;;;;;;;;;10279890;28;20092;-60
2021/08/30 23:50:44;;;;;;;3.88;3.47;;;;;;;;;;10279482;28;20103;-61
2021/08/30 23:55:42;;;;;;;3.92;3.53;;;;;;;;;;10278873;28;20072;-60
